createdAt,value
2022-10-26T00:01:44.170Z,3.78
2022-10-26T00:05:26.364Z,6.22
2022-10-26T00:09:08.421Z,6.13
2022-10-26T00:12:51.714Z,4.28
2022-10-26T00:16:33.897Z,5.60
2022-10-26T00:20:16.190Z,4.57
2022-10-26T00:24:00.225Z,5.72
2022-10-26T00:27:42.369Z,3.92
2022-10-26T00:31:25.238Z,4.95
2022-10-26T00:35:21.173Z,6.45
2022-10-26T00:39:13.397Z,5.82
2022-10-26T00:42:55.635Z,5.53
2022-10-26T00:46:39.277Z,8.27
2022-10-26T00:50:44.028Z,6.32
2022-10-26T00:54:26.090Z,4.95
2022-10-26T00:58:10.089Z,6.30
2022-10-26T01:01:53.407Z,5.45
2022-10-26T01:05:38.624Z,5.80
2022-10-26T01:09:22.059Z,7.78
2022-10-26T01:13:05.689Z,9.43
2022-10-26T01:17:28.317Z,7.10
2022-10-26T01:21:25.376Z,6.22
2022-10-26T01:25:34.099Z,9.93
2022-10-26T01:29:37.829Z,8.30
2022-10-26T01:33:42.698Z,5.05
2022-10-26T01:37:32.838Z,5.07
2022-10-26T01:41:22.965Z,4.10
2022-10-26T01:45:08.663Z,5.90
2022-10-26T01:48:56.195Z,5.93
2022-10-26T01:52:38.310Z,4.30
2022-10-26T01:56:26.665Z,3.47
2022-10-26T02:00:11.276Z,5.22
2022-10-26T02:04:30.761Z,4.47
2022-10-26T02:08:56.094Z,7.28
2022-10-26T02:12:50.451Z,5.97
2022-10-26T02:16:52.158Z,5.13
2022-10-26T02:20:38.473Z,4.25
2022-10-26T02:24:22.304Z,5.78
2022-10-26T02:28:09.268Z,7.20
2022-10-26T02:31:52.814Z,4.70
2022-10-26T02:35:41.436Z,6.28
2022-10-26T02:39:24.511Z,6.57
2022-10-26T02:43:13.075Z,5.35
2022-10-26T02:46:57.116Z,4.68
2022-10-26T02:50:59.499Z,8.65
2022-10-26T02:55:06.088Z,4.30
2022-10-26T02:58:53.340Z,8.95
2022-10-26T03:02:35.538Z,6.20
2022-10-26T03:06:24.803Z,6.80
2022-10-26T03:10:08.384Z,5.82
2022-10-26T03:13:50.578Z,11.57
2022-10-26T03:17:32.974Z,11.63
2022-10-26T03:21:18.272Z,5.82
2022-10-26T03:25:00.632Z,6.50
2022-10-26T03:28:42.939Z,6.90
2022-10-26T03:32:25.201Z,7.78
2022-10-26T03:36:07.981Z,9.38
2022-10-26T03:39:50.144Z,5.45
2022-10-26T04:19:05.255Z,5.90
2022-10-26T04:22:47.360Z,8.82
2022-10-26T04:26:32.394Z,10.02
2022-10-26T04:30:14.746Z,8.88
2022-10-26T04:33:56.955Z,9.35
2022-10-26T04:37:39.077Z,6.63
2022-10-26T04:41:21.215Z,10.40
2022-10-26T04:45:03.727Z,4.20
2022-10-26T04:48:47.763Z,5.93
2022-10-26T04:52:29.902Z,7.80
2022-10-26T04:56:12.030Z,5.50
2022-10-26T04:59:54.300Z,8.50
2022-10-26T05:03:36.547Z,6.85
2022-10-26T05:07:18.672Z,11.27
2022-10-26T05:11:00.827Z,9.10
2022-10-26T05:14:44.775Z,8.65
2022-10-26T05:18:27.098Z,5.60
2022-10-26T05:22:09.509Z,7.97
2022-10-26T05:25:51.824Z,9.27
2022-10-26T05:29:34.132Z,6.97
2022-10-26T05:33:16.447Z,8.93
2022-10-26T05:36:58.642Z,9.13
2022-10-26T05:40:48.034Z,7.85
2022-10-26T05:44:35.365Z,7.18
2022-10-26T05:48:18.071Z,7.45
2022-10-26T05:52:00.188Z,11.15
2022-10-26T05:55:45.730Z,6.85
2022-10-26T05:59:28.379Z,9.77
2022-10-26T06:03:22.300Z,9.93
2022-10-26T06:07:07.932Z,8.50
2022-10-26T06:10:54.410Z,10.73
2022-10-26T06:14:41.767Z,9.48
2022-10-26T06:18:48.412Z,7.55
2022-10-26T06:22:55.685Z,10.05
2022-10-26T06:26:44.273Z,7.63
2022-10-26T06:30:26.919Z,6.45
2022-10-26T06:34:12.243Z,7.93
2022-10-26T06:37:57.299Z,7.80
2022-10-26T06:41:39.865Z,7.88
2022-10-26T06:45:22.407Z,9.20
2022-10-26T06:49:24.709Z,10.55
2022-10-26T06:53:16.745Z,6.57
2022-10-26T06:56:59.262Z,14.95
2022-10-26T07:00:47.933Z,9.40
2022-10-26T07:04:29.985Z,9.68
2022-10-26T07:08:15.434Z,13.68
2022-10-26T07:11:57.614Z,11.68
2022-10-26T07:15:40.875Z,10.15
2022-10-26T07:19:26.210Z,11.02
2022-10-26T07:23:11.956Z,9.90
2022-10-26T07:26:56.005Z,16.08
2022-10-26T07:30:39.805Z,8.77
2022-10-26T07:34:24.205Z,8.88
2022-10-26T07:38:07.079Z,11.85
2022-10-26T07:41:49.377Z,10.98
2022-10-26T07:45:34.250Z,11.02
2022-10-26T07:49:19.335Z,5.22
2022-10-26T07:53:01.880Z,10.48
2022-10-26T07:56:44.203Z,6.68
2022-10-26T08:00:26.360Z,8.80
2022-10-26T08:04:08.488Z,6.88
2022-10-26T08:07:50.900Z,3.78
2022-10-26T08:11:33.123Z,3.92
2022-10-26T08:15:15.259Z,6.57
2022-10-26T08:18:57.927Z,5.15
2022-10-26T08:22:40.087Z,5.07
2022-10-26T08:26:22.347Z,6.43
2022-10-26T08:30:04.763Z,5.57
2022-10-26T08:33:46.863Z,4.47
2022-10-26T08:37:29.006Z,4.75
2022-10-26T08:41:14.839Z,5.03
2022-10-26T08:45:04.511Z,5.80
2022-10-26T08:48:50.488Z,6.05
2022-10-26T08:52:49.725Z,7.18
2022-10-26T08:56:48.637Z,5.85
2022-10-26T09:00:33.431Z,8.25
2022-10-26T09:04:15.840Z,9.40
2022-10-26T09:08:10.234Z,7.43
2022-10-26T09:12:45.727Z,6.75
2022-10-26T09:16:59.932Z,12.57
2022-10-26T09:21:05.163Z,9.73
2022-10-26T09:24:58.722Z,9.07
2022-10-26T09:28:41.974Z,8.45
2022-10-26T09:32:31.617Z,9.05
2022-10-26T09:36:22.465Z,7.68
2022-10-26T09:40:30.477Z,7.35
2022-10-26T09:44:28.346Z,7.00
2022-10-26T09:48:22.592Z,10.05
2022-10-26T09:52:05.313Z,10.90
2022-10-26T09:55:50.675Z,11.02
2022-10-26T09:59:36.801Z,9.57
2022-10-26T10:03:32.834Z,8.00
2022-10-26T10:07:18.139Z,12.15
2022-10-26T10:11:07.540Z,9.23
2022-10-26T10:14:58.501Z,14.67
2022-10-26T10:18:42.360Z,11.25
2022-10-26T10:22:27.391Z,11.63
2022-10-26T10:26:14.634Z,11.88
2022-10-26T10:30:01.511Z,11.70
2022-10-26T10:33:46.912Z,12.35
2022-10-26T10:37:38.794Z,11.30
2022-10-26T10:41:32.522Z,12.35
2022-10-26T10:45:26.093Z,13.20
2022-10-26T10:49:19.948Z,10.65
2022-10-26T10:53:24.541Z,11.35
2022-10-26T10:57:15.533Z,9.70
2022-10-26T11:00:58.112Z,10.98
2022-10-26T11:05:04.998Z,11.65
2022-10-26T11:08:50.648Z,13.63
2022-10-26T11:12:37.704Z,11.02
2022-10-26T11:16:31.531Z,14.35
2022-10-26T11:20:19.083Z,16.50
2022-10-26T11:24:25.534Z,14.75
2022-10-26T11:28:23.918Z,13.75
2022-10-26T11:32:22.225Z,12.23
2022-10-26T11:36:17.179Z,14.73
2022-10-26T11:40:26.188Z,12.55
2022-10-26T11:44:26.735Z,12.57
2022-10-26T11:52:25.545Z,13.40
2022-10-26T11:56:21.374Z,11.20
2022-10-26T12:00:07.350Z,14.98
2022-10-26T12:03:54.368Z,13.43
2022-10-26T12:07:39.121Z,12.02
2022-10-26T12:11:43.817Z,15.43
2022-10-26T12:16:08.725Z,10.38
2022-10-26T12:20:11.011Z,13.98
2022-10-26T12:24:22.091Z,12.32
2022-10-26T12:28:04.464Z,16.98
2022-10-26T12:31:46.438Z,9.68
2022-10-26T12:35:41.422Z,11.18
2022-10-26T12:39:33.576Z,11.27
2022-10-26T12:43:15.473Z,10.70
2022-10-26T12:46:57.416Z,13.88
2022-10-26T12:50:39.437Z,10.27
2022-10-26T12:54:35.876Z,17.02
2022-10-26T12:58:38.151Z,13.55
2022-10-26T13:02:32.196Z,13.90
2022-10-26T13:06:35.812Z,12.80
2022-10-26T13:10:25.048Z,12.93
2022-10-26T13:14:18.677Z,11.50
2022-10-26T13:18:20.654Z,12.50
2022-10-26T13:22:03.003Z,10.60
2022-10-26T13:26:03.179Z,13.10
2022-10-26T13:30:03.931Z,13.63
2022-10-26T13:33:47.161Z,12.73
2022-10-26T13:37:32.244Z,12.70
2022-10-26T13:41:46.992Z,17.73
2022-10-26T13:45:46.807Z,11.82
2022-10-26T13:49:36.704Z,14.80
2022-10-26T13:53:42.391Z,13.75
2022-10-26T13:57:33.155Z,15.77
2022-10-26T14:01:24.025Z,11.93
2022-10-26T14:05:06.731Z,11.98
2022-10-26T14:08:50.712Z,13.50
2022-10-26T14:12:33.229Z,12.70
2022-10-26T14:16:19.341Z,15.45
2022-10-26T14:20:03.394Z,16.05
2022-10-26T14:23:59.813Z,14.25
2022-10-26T14:27:43.358Z,18.33
2022-10-26T14:31:30.813Z,15.00
2022-10-26T14:35:14.482Z,12.20
2022-10-26T14:39:01.857Z,12.07
2022-10-26T14:42:50.221Z,14.55
2022-10-26T14:46:35.267Z,13.27
2022-10-26T14:50:20.245Z,14.60
2022-10-26T14:54:04.189Z,10.18
2022-10-26T14:57:48.948Z,12.23
2022-10-26T15:01:35.717Z,15.05
2022-10-26T15:05:23.293Z,13.30
2022-10-26T15:09:07.091Z,13.90
2022-10-26T15:12:49.165Z,13.48
2022-10-26T15:16:34.669Z,13.88
2022-10-26T15:20:20.549Z,12.98
2022-10-26T15:24:04.081Z,13.85
2022-10-26T15:27:46.742Z,12.30
2022-10-26T15:31:33.373Z,11.15
2022-10-26T15:35:29.194Z,14.40
2022-10-26T15:39:11.217Z,10.50
2022-10-26T15:42:54.596Z,15.18
2022-10-26T15:46:39.410Z,12.32
2022-10-26T15:50:23.669Z,23.00
2022-10-26T15:54:06.398Z,13.18
2022-10-26T15:57:50.926Z,11.25
2022-10-26T16:01:33.416Z,12.68
2022-10-26T16:05:16.805Z,9.80
2022-10-26T16:09:01.755Z,8.02
2022-10-26T16:12:43.904Z,15.68
2022-10-26T16:16:25.942Z,15.85
2022-10-26T16:20:12.761Z,12.30
2022-10-26T16:23:57.452Z,13.70
2022-10-26T16:27:39.535Z,12.18
2022-10-26T16:31:22.174Z,14.50
2022-10-26T16:35:04.655Z,13.73
2022-10-26T16:38:46.871Z,15.27
2022-10-26T16:42:31.449Z,11.48
2022-10-26T16:46:48.252Z,12.65
2022-10-26T16:50:52.992Z,11.73
2022-10-26T16:54:35.301Z,15.32
2022-10-26T16:58:17.505Z,10.85
2022-10-26T17:01:59.816Z,11.63
2022-10-26T17:05:42.600Z,16.02
2022-10-26T17:09:24.603Z,10.05
2022-10-26T17:13:06.643Z,13.93
2022-10-26T17:16:48.813Z,14.43
2022-10-26T17:20:31.029Z,15.63
2022-10-26T17:24:13.891Z,13.73
2022-10-26T17:27:56.900Z,20.15
2022-10-26T17:31:39.251Z,13.65
2022-10-26T17:35:22.618Z,14.27
2022-10-26T17:39:05.205Z,18.25
2022-10-26T17:42:50.372Z,15.05
2022-10-26T17:46:32.679Z,11.93
2022-10-26T17:50:14.748Z,16.92
2022-10-26T17:53:59.296Z,16.30
2022-10-26T17:57:41.927Z,12.25
2022-10-26T18:01:27.043Z,14.27
2022-10-26T18:05:09.878Z,18.17
2022-10-26T18:08:53.279Z,10.77
2022-10-26T18:12:35.846Z,15.60
2022-10-26T18:16:26.160Z,14.18
2022-10-26T18:20:09.588Z,13.60
2022-10-26T18:23:54.418Z,12.77
2022-10-26T18:27:36.770Z,14.68
2022-10-26T18:31:24.856Z,13.65
2022-10-26T18:35:07.482Z,11.95
2022-10-26T18:38:49.600Z,17.42
2022-10-26T18:42:31.761Z,14.88
2022-10-26T18:46:20.816Z,13.48
2022-10-26T18:50:04.027Z,11.70
2022-10-26T18:53:47.563Z,14.73
2022-10-26T18:57:30.183Z,13.65
2022-10-26T19:01:16.891Z,12.20
2022-10-26T19:05:20.821Z,16.65
2022-10-26T19:09:04.682Z,15.10
2022-10-26T19:12:46.804Z,17.35
2022-10-26T19:16:51.350Z,17.38
2022-10-26T19:20:34.238Z,15.80
2022-10-26T19:24:19.996Z,20.73
2022-10-26T19:28:02.244Z,17.17
2022-10-26T19:31:46.522Z,18.70
2022-10-26T19:35:28.996Z,15.38
2022-10-26T19:39:11.361Z,15.40
2022-10-26T19:42:53.866Z,14.70
2022-10-26T19:46:36.622Z,15.48
2022-10-26T19:50:18.748Z,17.88
2022-10-26T19:54:03.865Z,15.75
2022-10-26T19:57:46.739Z,25.15
2022-10-26T20:01:28.850Z,19.40
2022-10-26T20:05:11.548Z,16.63
2022-10-26T20:08:53.604Z,24.15
2022-10-26T20:12:35.691Z,19.75
2022-10-26T20:16:18.442Z,22.02
2022-10-26T20:20:00.662Z,30.40
2022-10-26T20:23:43.495Z,19.63
2022-10-26T20:27:25.570Z,12.27
2022-10-26T20:31:07.761Z,16.77
2022-10-26T20:34:52.602Z,15.52
2022-10-26T20:38:35.167Z,12.75
2022-10-26T20:42:28.578Z,17.40
2022-10-26T20:46:13.313Z,19.42
2022-10-26T20:49:56.120Z,13.35
2022-10-26T20:54:00.144Z,10.95
2022-10-26T20:57:57.429Z,13.38
2022-10-26T21:01:40.664Z,19.05
2022-10-26T21:05:34.678Z,20.48
2022-10-26T21:09:22.105Z,17.45
2022-10-26T21:13:08.469Z,23.23
2022-10-26T21:16:50.913Z,13.25
2022-10-26T21:20:35.678Z,11.85
2022-10-26T21:24:17.997Z,15.98
2022-10-26T21:28:00.211Z,11.38
2022-10-26T21:31:42.590Z,14.88
2022-10-26T21:35:28.008Z,13.35
2022-10-26T21:39:10.731Z,17.15
2022-10-26T21:42:53.193Z,16.65
2022-10-26T21:46:36.277Z,15.88
2022-10-26T21:50:18.700Z,14.90
2022-10-26T21:54:01.096Z,15.70
2022-10-26T21:57:43.174Z,15.07
2022-10-26T22:01:28.141Z,14.77
2022-10-26T22:05:11.631Z,18.33
2022-10-26T22:08:54.370Z,11.90
2022-10-26T22:12:39.294Z,15.02
2022-10-26T22:16:24.780Z,14.13
2022-10-26T22:20:09.530Z,11.65
2022-10-26T22:23:51.866Z,8.70
2022-10-26T22:27:36.507Z,16.02
2022-10-26T22:31:22.639Z,10.15
2022-10-26T22:35:17.444Z,13.32
2022-10-26T22:39:10.676Z,7.35
2022-10-26T22:42:53.497Z,10.45
2022-10-26T22:46:35.934Z,14.88
2022-10-26T22:50:18.046Z,11.85
2022-10-26T22:54:02.052Z,13.35
2022-10-26T22:57:44.144Z,11.32
2022-10-26T23:01:34.044Z,16.92
2022-10-26T23:05:16.369Z,12.00
2022-10-26T23:08:59.190Z,12.20
2022-10-26T23:12:41.380Z,12.15
2022-10-26T23:16:24.556Z,12.95
2022-10-26T23:20:07.449Z,17.48
2022-10-26T23:23:50.204Z,16.08
2022-10-26T23:27:32.333Z,15.52
2022-10-26T23:31:17.663Z,16.15
2022-10-26T23:34:59.718Z,19.13
2022-10-26T23:38:41.928Z,14.20
2022-10-26T23:42:24.395Z,9.13
2022-10-26T23:46:06.774Z,12.13
2022-10-26T23:49:51.686Z,12.85
2022-10-26T23:53:33.894Z,15.45
2022-10-26T23:57:16.280Z,15.25
